SVA980 OEDF-OMDB
Flight info
| Callsign | SVA980 |
|---|---|
| Flight time | 0h 55m |
| Altitude | 31000 |
| Route | ROTEL1E ROTEL N572 DAVRI P559 VUTEB VUTEB4C |
| Aircraft | B77W/H-SDE1E2E3FGHIJ2J3J4J5M1RWXY/LB1D1 |
Departure
| Time | 2026-04-21 10:15 |
|---|---|
| Airport | King Fahd International Airport (OEDF) |
Arrival
| Time | 2026-04-21 11:10 |
|---|---|
| Airport | Dubai International Airport (OMDB) |
| Time | Latitude | Longitude | Altitude | Speed | Heading |
|---|---|---|---|---|---|
| 2026-04-21 09:32 | 26.46732 | 49.79522 | 90 ft | 0 kts | 77° |
| 2026-04-21 09:44 | 26.46732 | 49.79521 | 90 ft | 0 kts | 76° |
| 2026-04-21 09:57 | 26.46738 | 49.79548 | 95 ft | 0 kts | 77° |
| 2026-04-21 10:04 | 26.46733 | 49.79528 | 90 ft | 4 kts | 72° |
| 2026-04-21 10:04 | 26.46725 | 49.79500 | 92 ft | 4 kts | 75° |
| 2026-04-21 10:05 | 26.46723 | 49.79481 | 92 ft | 2 kts | 110° |
| 2026-04-21 10:05 | 26.46732 | 49.79460 | 101 ft | 4 kts | 140° |
| 2026-04-21 10:05 | 26.46751 | 49.79450 | 111 ft | 4 kts | 168° |
| 2026-04-21 10:05 | 26.46770 | 49.79445 | 92 ft | 0 kts | 166° |
| 2026-04-21 10:08 | 26.46766 | 49.79446 | 94 ft | 2 kts | 166° |
| 2026-04-21 10:08 | 26.46739 | 49.79454 | 92 ft | 6 kts | 166° |
| 2026-04-21 10:09 | 26.46681 | 49.79470 | 93 ft | 11 kts | 166° |
| 2026-04-21 10:09 | 26.46593 | 49.79487 | 92 ft | 15 kts | 175° |
| 2026-04-21 10:09 | 26.46493 | 49.79494 | 93 ft | 1 kts | 185° |
| 2026-04-21 10:09 | 26.46487 | 49.79489 | 92 ft | 2 kts | 217° |
| 2026-04-21 10:10 | 26.46474 | 49.79466 | 94 ft | 6 kts | 241° |
| 2026-04-21 10:10 | 26.46455 | 49.79407 | 94 ft | 10 kts | 253° |
| 2026-04-21 10:10 | 26.46430 | 49.79316 | 94 ft | 8 kts | 253° |
| 2026-04-21 10:10 | 26.46393 | 49.79255 | 92 ft | 12 kts | 208° |
| 2026-04-21 10:11 | 26.46306 | 49.79252 | 92 ft | 15 kts | 167° |
| 2026-04-21 10:11 | 26.46191 | 49.79287 | 94 ft | 20 kts | 164° |
| 2026-04-21 10:11 | 26.46045 | 49.79332 | 94 ft | 24 kts | 165° |
| 2026-04-21 10:11 | 26.45869 | 49.79386 | 94 ft | 28 kts | 165° |
| 2026-04-21 10:12 | 26.45695 | 49.79440 | 93 ft | 19 kts | 163° |
| 2026-04-21 10:12 | 26.45554 | 49.79485 | 94 ft | 23 kts | 169° |
| 2026-04-21 10:12 | 26.45462 | 49.79447 | 94 ft | 14 kts | 238° |
| 2026-04-21 10:12 | 26.45427 | 49.79335 | 94 ft | 18 kts | 253° |
| 2026-04-21 10:13 | 26.45414 | 49.79262 | 95 ft | 7 kts | 264° |
| 2026-04-21 10:13 | 26.45441 | 49.79204 | 94 ft | 11 kts | 317° |
| 2026-04-21 10:13 | 26.45499 | 49.79176 | 92 ft | 0 kts | 342° |
| 2026-04-21 10:13 | 26.45504 | 49.79174 | 93 ft | 1 kts | 342° |
| 2026-04-21 10:14 | 26.45515 | 49.79170 | 92 ft | 2 kts | 342° |
| 2026-04-21 10:14 | 26.45539 | 49.79162 | 94 ft | 11 kts | 342° |
| 2026-04-21 10:14 | 26.45731 | 49.79097 | 95 ft | 47 kts | 346° |
| 2026-04-21 10:14 | 26.46343 | 49.78914 | 95 ft | 138 kts | 345° |
| 2026-04-21 10:15 | 26.47483 | 49.78558 | 358 ft | 189 kts | 347° |
| 2026-04-21 10:15 | 26.48806 | 49.78062 | 922 ft | 211 kts | 345° |
| 2026-04-21 10:15 | 26.50197 | 49.77568 | 2260 ft | 197 kts | 348° |
| 2026-04-21 10:15 | 26.51526 | 49.77201 | 3496 ft | 201 kts | 346° |
| 2026-04-21 10:16 | 26.52945 | 49.76806 | 4145 ft | 225 kts | 345° |
| 2026-04-21 10:16 | 26.54541 | 49.76339 | 4790 ft | 249 kts | 343° |
| 2026-04-21 10:16 | 26.56292 | 49.75813 | 5516 ft | 271 kts | 341° |
| 2026-04-21 10:16 | 26.58184 | 49.75433 | 6383 ft | 284 kts | 359° |
| 2026-04-21 10:17 | 26.60132 | 49.76011 | 7296 ft | 301 kts | 27° |
| 2026-04-21 10:17 | 26.61718 | 49.77586 | 8204 ft | 314 kts | 55° |
| 2026-04-21 10:17 | 26.62575 | 49.79843 | 9074 ft | 322 kts | 81° |
| 2026-04-21 10:17 | 26.62820 | 49.82360 | 9895 ft | 331 kts | 90° |
| 2026-04-21 10:18 | 26.62882 | 49.84982 | 10547 ft | 345 kts | 93° |
| 2026-04-21 10:18 | 26.62901 | 49.87741 | 11083 ft | 365 kts | 93° |
| 2026-04-21 10:18 | 26.62926 | 49.90664 | 11530 ft | 387 kts | 92° |
| 2026-04-21 10:18 | 26.62973 | 49.93751 | 11933 ft | 409 kts | 92° |
| 2026-04-21 10:19 | 26.63045 | 49.97011 | 12317 ft | 429 kts | 91° |
| 2026-04-21 10:19 | 26.63135 | 50.00388 | 12983 ft | 439 kts | 91° |
| 2026-04-21 10:19 | 26.63235 | 50.03823 | 13693 ft | 447 kts | 91° |
| 2026-04-21 10:19 | 26.63303 | 50.06138 | 14105 ft | 451 kts | 91° |
| 2026-04-21 10:20 | 26.63405 | 50.09669 | 14754 ft | 457 kts | 90° |
| 2026-04-21 10:20 | 26.63505 | 50.13237 | 15379 ft | 462 kts | 90° |
| 2026-04-21 10:20 | 26.63631 | 50.16843 | 16004 ft | 465 kts | 87° |
| 2026-04-21 10:20 | 26.64088 | 50.20454 | 16542 ft | 472 kts | 79° |
| 2026-04-21 10:21 | 26.65035 | 50.25232 | 17332 ft | 477 kts | 76° |
| 2026-04-21 10:21 | 26.65540 | 50.27677 | 17732 ft | 479 kts | 77° |
| 2026-04-21 10:21 | 26.66239 | 50.31338 | 18319 ft | 482 kts | 78° |
| 2026-04-21 10:21 | 26.66883 | 50.35012 | 18786 ft | 485 kts | 79° |
| 2026-04-21 10:22 | 26.67577 | 50.38717 | 19232 ft | 487 kts | 75° |
| 2026-04-21 10:22 | 26.68548 | 50.42365 | 19639 ft | 490 kts | 71° |
| 2026-04-21 10:22 | 26.69603 | 50.46004 | 20046 ft | 493 kts | 71° |
| 2026-04-21 10:22 | 26.70624 | 50.49675 | 20451 ft | 496 kts | 72° |
| 2026-04-21 10:23 | 26.71615 | 50.53380 | 20851 ft | 499 kts | 73° |
| 2026-04-21 10:23 | 26.72591 | 50.57107 | 21216 ft | 502 kts | 73° |
| 2026-04-21 10:23 | 26.73569 | 50.60865 | 21573 ft | 504 kts | 73° |
| 2026-04-21 10:23 | 26.74551 | 50.64641 | 21935 ft | 506 kts | 73° |
| 2026-04-21 10:24 | 26.75538 | 50.68427 | 22282 ft | 508 kts | 73° |
| 2026-04-21 10:24 | 26.76532 | 50.72235 | 22626 ft | 510 kts | 73° |
| 2026-04-21 10:24 | 26.77529 | 50.76049 | 22941 ft | 512 kts | 73° |
| 2026-04-21 10:24 | 26.78192 | 50.78585 | 23151 ft | 513 kts | 73° |
| 2026-04-21 10:25 | 26.79530 | 50.83712 | 23570 ft | 514 kts | 73° |
| 2026-04-21 10:25 | 26.80518 | 50.87503 | 23830 ft | 515 kts | 73° |
| 2026-04-21 10:25 | 26.81519 | 50.91395 | 24098 ft | 510 kts | 76° |
| 2026-04-21 10:25 | 26.81979 | 50.95282 | 24358 ft | 510 kts | 91° |
| 2026-04-21 10:26 | 26.81497 | 50.99186 | 24627 ft | 506 kts | 108° |
| 2026-04-21 10:26 | 26.80217 | 51.02820 | 24813 ft | 500 kts | 120° |
| 2026-04-21 10:26 | 26.78676 | 51.06328 | 24883 ft | 505 kts | 118° |
| 2026-04-21 10:26 | 26.77255 | 51.09950 | 24899 ft | 512 kts | 114° |
| 2026-04-21 10:27 | 26.76018 | 51.13714 | 24910 ft | 518 kts | 112° |
| 2026-04-21 10:27 | 26.74838 | 51.17531 | 24904 ft | 519 kts | 111° |
| 2026-04-21 10:27 | 26.73669 | 51.21343 | 24892 ft | 518 kts | 111° |
| 2026-04-21 10:27 | 26.72488 | 51.25136 | 24887 ft | 516 kts | 112° |
| 2026-04-21 10:28 | 26.71290 | 51.28916 | 24889 ft | 516 kts | 112° |
| 2026-04-21 10:28 | 26.70069 | 51.32714 | 24899 ft | 520 kts | 112° |
| 2026-04-21 10:28 | 26.68833 | 51.36541 | 24900 ft | 524 kts | 112° |
| 2026-04-21 10:28 | 26.67590 | 51.40392 | 24895 ft | 526 kts | 112° |
| 2026-04-21 10:29 | 26.66350 | 51.44239 | 24886 ft | 525 kts | 112° |
| 2026-04-21 10:29 | 26.65114 | 51.48080 | 24884 ft | 525 kts | 112° |
| 2026-04-21 10:29 | 26.63888 | 51.51898 | 24883 ft | 524 kts | 112° |
| 2026-04-21 10:29 | 26.62652 | 51.55745 | 24883 ft | 523 kts | 112° |
| 2026-04-21 10:30 | 26.61422 | 51.59572 | 24882 ft | 523 kts | 112° |
| 2026-04-21 10:30 | 26.60187 | 51.63406 | 24886 ft | 523 kts | 112° |
| 2026-04-21 10:30 | 26.58955 | 51.67231 | 24881 ft | 523 kts | 112° |
| 2026-04-21 10:30 | 26.57719 | 51.71057 | 24878 ft | 522 kts | 112° |
| 2026-04-21 10:31 | 26.56497 | 51.74816 | 24879 ft | 522 kts | 112° |
| 2026-04-21 10:31 | 26.55258 | 51.78629 | 24877 ft | 522 kts | 112° |
| 2026-04-21 10:31 | 26.54026 | 51.82452 | 24876 ft | 522 kts | 112° |
| 2026-04-21 10:31 | 26.52799 | 51.86268 | 24869 ft | 522 kts | 112° |
| 2026-04-21 10:32 | 26.51561 | 51.90078 | 24871 ft | 521 kts | 112° |
| 2026-04-21 10:32 | 26.50299 | 51.93876 | 24865 ft | 521 kts | 113° |
| 2026-04-21 10:32 | 26.49028 | 51.97670 | 24865 ft | 521 kts | 113° |
| 2026-04-21 10:32 | 26.47757 | 52.01456 | 24866 ft | 521 kts | 113° |
| 2026-04-21 10:33 | 26.46487 | 52.05252 | 24863 ft | 521 kts | 113° |
| 2026-04-21 10:33 | 26.45222 | 52.09042 | 24861 ft | 521 kts | 112° |
| 2026-04-21 10:33 | 26.43954 | 52.12839 | 24858 ft | 522 kts | 112° |
| 2026-04-21 10:33 | 26.42687 | 52.16626 | 24859 ft | 522 kts | 112° |
| 2026-04-21 10:34 | 26.41433 | 52.20363 | 24855 ft | 522 kts | 112° |
| 2026-04-21 10:34 | 26.40157 | 52.24160 | 24851 ft | 522 kts | 112° |
| 2026-04-21 10:34 | 26.38883 | 52.27949 | 24847 ft | 522 kts | 112° |
| 2026-04-21 10:34 | 26.37606 | 52.31747 | 24850 ft | 522 kts | 112° |
| 2026-04-21 10:35 | 26.36330 | 52.35539 | 24847 ft | 522 kts | 112° |
| 2026-04-21 10:35 | 26.35053 | 52.39319 | 24844 ft | 522 kts | 113° |
| 2026-04-21 10:35 | 26.33690 | 52.43066 | 24840 ft | 521 kts | 115° |
| 2026-04-21 10:35 | 26.32253 | 52.46769 | 24839 ft | 521 kts | 116° |
| 2026-04-21 10:36 | 26.30788 | 52.50478 | 24839 ft | 521 kts | 116° |
| 2026-04-21 10:36 | 26.29338 | 52.54171 | 24832 ft | 521 kts | 116° |
| 2026-04-21 10:36 | 26.27901 | 52.57879 | 24832 ft | 521 kts | 115° |
| 2026-04-21 10:36 | 26.26473 | 52.61603 | 24841 ft | 521 kts | 115° |
| 2026-04-21 10:37 | 26.25051 | 52.65319 | 24826 ft | 521 kts | 115° |
| 2026-04-21 10:37 | 26.23629 | 52.69025 | 24824 ft | 521 kts | 115° |
| 2026-04-21 10:37 | 26.22205 | 52.72737 | 24820 ft | 521 kts | 115° |
| 2026-04-21 10:37 | 26.20783 | 52.76445 | 24819 ft | 521 kts | 115° |
| 2026-04-21 10:38 | 26.19360 | 52.80155 | 24825 ft | 520 kts | 115° |
| 2026-04-21 10:38 | 26.17956 | 52.83811 | 24810 ft | 520 kts | 115° |
| 2026-04-21 10:38 | 26.16533 | 52.87516 | 24822 ft | 520 kts | 115° |
| 2026-04-21 10:38 | 26.15110 | 52.91217 | 24819 ft | 520 kts | 115° |
| 2026-04-21 10:39 | 26.13684 | 52.94919 | 24810 ft | 520 kts | 115° |
| 2026-04-21 10:39 | 26.12260 | 52.98617 | 24813 ft | 520 kts | 115° |
| 2026-04-21 10:39 | 26.10836 | 53.02308 | 24817 ft | 519 kts | 115° |
| 2026-04-21 10:39 | 26.09420 | 53.06011 | 24812 ft | 519 kts | 115° |
| 2026-04-21 10:40 | 26.08044 | 53.09723 | 24812 ft | 520 kts | 114° |
| 2026-04-21 10:40 | 26.06688 | 53.13449 | 24813 ft | 520 kts | 114° |
| 2026-04-21 10:40 | 26.05336 | 53.17175 | 24812 ft | 519 kts | 114° |
| 2026-04-21 10:40 | 26.03981 | 53.20898 | 24810 ft | 519 kts | 114° |
| 2026-04-21 10:41 | 26.02619 | 53.24620 | 24812 ft | 519 kts | 114° |
| 2026-04-21 10:41 | 26.01254 | 53.28334 | 24811 ft | 519 kts | 114° |
| 2026-04-21 10:41 | 25.99886 | 53.32044 | 24809 ft | 519 kts | 114° |
| 2026-04-21 10:41 | 25.98532 | 53.35712 | 24805 ft | 519 kts | 114° |
| 2026-04-21 10:42 | 25.97163 | 53.39419 | 24809 ft | 518 kts | 114° |
| 2026-04-21 10:42 | 25.95795 | 53.43123 | 24811 ft | 518 kts | 114° |
| 2026-04-21 10:42 | 25.94424 | 53.46831 | 24800 ft | 518 kts | 114° |
| 2026-04-21 10:42 | 25.93054 | 53.50543 | 24799 ft | 518 kts | 114° |
| 2026-04-21 10:43 | 25.91738 | 53.54277 | 24804 ft | 519 kts | 112° |
| 2026-04-21 10:43 | 25.90465 | 53.58025 | 24798 ft | 519 kts | 112° |
| 2026-04-21 10:43 | 25.89200 | 53.61776 | 24808 ft | 519 kts | 112° |
| 2026-04-21 10:43 | 25.87925 | 53.65525 | 24812 ft | 519 kts | 112° |
| 2026-04-21 10:44 | 25.86638 | 53.69272 | 24805 ft | 519 kts | 112° |
| 2026-04-21 10:44 | 25.85344 | 53.73013 | 24808 ft | 519 kts | 113° |
| 2026-04-21 10:44 | 25.84042 | 53.76752 | 24803 ft | 519 kts | 113° |
| 2026-04-21 10:44 | 25.82738 | 53.80484 | 24800 ft | 519 kts | 113° |
| 2026-04-21 10:45 | 25.81432 | 53.84221 | 24806 ft | 519 kts | 113° |
| 2026-04-21 10:45 | 25.80125 | 53.87958 | 24799 ft | 519 kts | 113° |
| 2026-04-21 10:45 | 25.78821 | 53.91692 | 24802 ft | 519 kts | 113° |
| 2026-04-21 10:45 | 25.77518 | 53.95418 | 24803 ft | 519 kts | 113° |
| 2026-04-21 10:46 | 25.76211 | 53.99154 | 24802 ft | 518 kts | 113° |
| 2026-04-21 10:46 | 25.74921 | 54.02882 | 24803 ft | 518 kts | 112° |
| 2026-04-21 10:46 | 25.73720 | 54.06659 | 24798 ft | 519 kts | 110° |
| 2026-04-21 10:46 | 25.72578 | 54.10455 | 24805 ft | 518 kts | 110° |
| 2026-04-21 10:47 | 25.71449 | 54.14249 | 24804 ft | 518 kts | 110° |
| 2026-04-21 10:47 | 25.70323 | 54.17992 | 24811 ft | 518 kts | 110° |
| 2026-04-21 10:47 | 25.69163 | 54.21785 | 24806 ft | 518 kts | 110° |
| 2026-04-21 10:47 | 25.67997 | 54.25555 | 24812 ft | 518 kts | 110° |
| 2026-04-21 10:48 | 25.66823 | 54.29334 | 24806 ft | 518 kts | 110° |
| 2026-04-21 10:48 | 25.65653 | 54.33103 | 24811 ft | 518 kts | 110° |
| 2026-04-21 10:48 | 25.64485 | 54.36883 | 24805 ft | 518 kts | 110° |
| 2026-04-21 10:48 | 25.63327 | 54.40666 | 24805 ft | 518 kts | 110° |
| 2026-04-21 10:49 | 25.62172 | 54.44450 | 24804 ft | 518 kts | 110° |
| 2026-04-21 10:49 | 25.61015 | 54.48234 | 24807 ft | 518 kts | 110° |
| 2026-04-21 10:49 | 25.59859 | 54.52007 | 24806 ft | 518 kts | 110° |
| 2026-04-21 10:49 | 25.58761 | 54.55585 | 24848 ft | 499 kts | 110° |
| 2026-04-21 10:50 | 25.57971 | 54.59258 | 24587 ft | 486 kts | 97° |
| 2026-04-21 10:50 | 25.57982 | 54.62988 | 23934 ft | 484 kts | 83° |
| 2026-04-21 10:50 | 25.58687 | 54.66608 | 23263 ft | 476 kts | 75° |
| 2026-04-21 10:50 | 25.59354 | 54.70137 | 22509 ft | 474 kts | 80° |
| 2026-04-21 10:51 | 25.59822 | 54.73745 | 21764 ft | 471 kts | 83° |
| 2026-04-21 10:51 | 25.60212 | 54.77340 | 21018 ft | 469 kts | 83° |
| 2026-04-21 10:51 | 25.60612 | 54.80916 | 20297 ft | 466 kts | 82° |
| 2026-04-21 10:51 | 25.61038 | 54.84406 | 19566 ft | 446 kts | 81° |
| 2026-04-21 10:52 | 25.61459 | 54.87736 | 18862 ft | 427 kts | 81° |
| 2026-04-21 10:52 | 25.61864 | 54.90929 | 18177 ft | 410 kts | 81° |
| 2026-04-21 10:52 | 25.62252 | 54.94005 | 17404 ft | 396 kts | 81° |
| 2026-04-21 10:52 | 25.62626 | 54.96977 | 16643 ft | 384 kts | 81° |
| 2026-04-21 10:53 | 25.62988 | 54.99866 | 15908 ft | 374 kts | 81° |
| 2026-04-21 10:53 | 25.63342 | 55.02696 | 15184 ft | 368 kts | 81° |
| 2026-04-21 10:53 | 25.63696 | 55.05522 | 14506 ft | 376 kts | 81° |
| 2026-04-21 10:53 | 25.64059 | 55.08416 | 13837 ft | 382 kts | 81° |
| 2026-04-21 10:54 | 25.64429 | 55.11357 | 13113 ft | 387 kts | 81° |
| 2026-04-21 10:54 | 25.64802 | 55.14326 | 12381 ft | 390 kts | 81° |
| 2026-04-21 10:54 | 25.65179 | 55.17313 | 11652 ft | 392 kts | 81° |
| 2026-04-21 10:54 | 25.65542 | 55.20270 | 10947 ft | 389 kts | 83° |
| 2026-04-21 10:55 | 25.65352 | 55.23222 | 10213 ft | 388 kts | 106° |
| 2026-04-21 10:55 | 25.64079 | 55.25844 | 9514 ft | 389 kts | 131° |
| 2026-04-21 10:55 | 25.61959 | 55.27680 | 8778 ft | 386 kts | 152° |
| 2026-04-21 10:55 | 25.59540 | 55.28954 | 8288 ft | 380 kts | 156° |
| 2026-04-21 10:56 | 25.57205 | 55.30208 | 8080 ft | 367 kts | 152° |
| 2026-04-21 10:56 | 25.55040 | 55.31605 | 7956 ft | 352 kts | 147° |
| 2026-04-21 10:56 | 25.53065 | 55.33102 | 7939 ft | 336 kts | 144° |
| 2026-04-21 10:56 | 25.51215 | 55.34657 | 7948 ft | 335 kts | 141° |
| 2026-04-21 10:57 | 25.49395 | 55.36280 | 7950 ft | 335 kts | 140° |
| 2026-04-21 10:57 | 25.47614 | 55.37921 | 7949 ft | 332 kts | 140° |
| 2026-04-21 10:57 | 25.45856 | 55.39568 | 7948 ft | 330 kts | 139° |
| 2026-04-21 10:57 | 25.44135 | 55.41192 | 7944 ft | 328 kts | 139° |
| 2026-04-21 10:58 | 25.42399 | 55.42835 | 7950 ft | 328 kts | 139° |
| 2026-04-21 10:58 | 25.40646 | 55.44500 | 7991 ft | 329 kts | 139° |
| 2026-04-21 10:58 | 25.38925 | 55.46132 | 7950 ft | 330 kts | 139° |
| 2026-04-21 10:58 | 25.37169 | 55.47790 | 7944 ft | 333 kts | 139° |
| 2026-04-21 10:59 | 25.35414 | 55.49454 | 7946 ft | 333 kts | 139° |
| 2026-04-21 10:59 | 25.33655 | 55.51124 | 7925 ft | 332 kts | 139° |
| 2026-04-21 10:59 | 25.31894 | 55.52786 | 7698 ft | 332 kts | 140° |
| 2026-04-21 10:59 | 25.29927 | 55.54088 | 7023 ft | 335 kts | 163° |
| 2026-04-21 11:00 | 25.27683 | 55.54697 | 6399 ft | 332 kts | 165° |
| 2026-04-21 11:00 | 25.25483 | 55.55535 | 5752 ft | 337 kts | 159° |
| 2026-04-21 11:00 | 25.23298 | 55.56527 | 5128 ft | 342 kts | 157° |
| 2026-04-21 11:00 | 25.21134 | 55.57643 | 4442 ft | 342 kts | 150° |
| 2026-04-21 11:01 | 25.19334 | 55.59327 | 3766 ft | 335 kts | 129° |
| 2026-04-21 11:01 | 25.18041 | 55.61379 | 3128 ft | 319 kts | 122° |
| 2026-04-21 11:01 | 25.16934 | 55.63447 | 2480 ft | 306 kts | 120° |
| 2026-04-21 11:02 | 25.14978 | 55.67235 | 1987 ft | 260 kts | 119° |
| 2026-04-21 11:02 | 25.14149 | 55.68864 | 1940 ft | 233 kts | 120° |
| 2026-04-21 11:02 | 25.13134 | 55.70085 | 1898 ft | 204 kts | 154° |
| 2026-04-21 11:02 | 25.11772 | 55.70382 | 1956 ft | 203 kts | 191° |
| 2026-04-21 11:03 | 25.10544 | 55.69753 | 1941 ft | 191 kts | 229° |
| 2026-04-21 11:03 | 25.09923 | 55.68520 | 1968 ft | 182 kts | 252° |
| 2026-04-21 11:03 | 25.09503 | 55.67203 | 1972 ft | 178 kts | 254° |
| 2026-04-21 11:03 | 25.09457 | 55.65901 | 1947 ft | 170 kts | 289° |
| 2026-04-21 11:04 | 25.09915 | 55.64701 | 1924 ft | 164 kts | 295° |
| 2026-04-21 11:04 | 25.10381 | 55.63607 | 1934 ft | 156 kts | 297° |
| 2026-04-21 11:04 | 25.10914 | 55.62510 | 1962 ft | 170 kts | 299° |
| 2026-04-21 11:04 | 25.11492 | 55.61398 | 1946 ft | 164 kts | 300° |
| 2026-04-21 11:05 | 25.12088 | 55.60294 | 1946 ft | 166 kts | 300° |
| 2026-04-21 11:05 | 25.12679 | 55.59214 | 1951 ft | 165 kts | 301° |
| 2026-04-21 11:05 | 25.13288 | 55.58110 | 1962 ft | 171 kts | 302° |
| 2026-04-21 11:05 | 25.13904 | 55.56990 | 1936 ft | 166 kts | 301° |
| 2026-04-21 11:06 | 25.14292 | 55.56288 | 1948 ft | 159 kts | 301° |
| 2026-04-21 11:06 | 25.15106 | 55.54818 | 1973 ft | 168 kts | 301° |
| 2026-04-21 11:06 | 25.15723 | 55.53705 | 1970 ft | 177 kts | 302° |
| 2026-04-21 11:06 | 25.16372 | 55.52537 | 1993 ft | 181 kts | 302° |
| 2026-04-21 11:07 | 25.17028 | 55.51348 | 1935 ft | 176 kts | 301° |
| 2026-04-21 11:07 | 25.17448 | 55.50590 | 1959 ft | 167 kts | 302° |
| 2026-04-21 11:07 | 25.18233 | 55.49170 | 1945 ft | 161 kts | 301° |
| 2026-04-21 11:07 | 25.18625 | 55.48464 | 1818 ft | 164 kts | 301° |
| 2026-04-21 11:08 | 25.19203 | 55.47421 | 1612 ft | 153 kts | 301° |
| 2026-04-21 11:08 | 25.19753 | 55.46426 | 1434 ft | 157 kts | 301° |
| 2026-04-21 11:08 | 25.20338 | 55.45365 | 1261 ft | 163 kts | 301° |
| 2026-04-21 11:08 | 25.20924 | 55.44304 | 1024 ft | 158 kts | 302° |
| 2026-04-21 11:09 | 25.21480 | 55.43303 | 853 ft | 150 kts | 302° |
| 2026-04-21 11:09 | 25.22031 | 55.42300 | 641 ft | 154 kts | 301° |
| 2026-04-21 11:09 | 25.22572 | 55.41314 | 476 ft | 153 kts | 302° |
| 2026-04-21 11:09 | 25.23148 | 55.40263 | 265 ft | 162 kts | 302° |
| 2026-04-21 11:10 | 25.23730 | 55.39231 | 50 ft | 153 kts | 303° |
| 2026-04-21 11:10 | 25.24193 | 55.38403 | 36 ft | 65 kts | 302° |
| 2026-04-21 11:10 | 25.24384 | 55.38056 | 35 ft | 50 kts | 301° |
| 2026-04-21 11:10 | 25.24561 | 55.37738 | 33 ft | 47 kts | 301° |
| 2026-04-21 11:11 | 25.24727 | 55.37436 | 33 ft | 45 kts | 301° |
| 2026-04-21 11:11 | 25.24883 | 55.37154 | 34 ft | 42 kts | 301° |
| 2026-04-21 11:11 | 25.25008 | 55.36874 | 34 ft | 41 kts | 284° |
| 2026-04-21 11:11 | 25.25023 | 55.36723 | 31 ft | 1 kts | 270° |
| 2026-04-21 11:12 | 25.25023 | 55.36714 | 30 ft | 2 kts | 271° |
| 2026-04-21 11:12 | 25.25023 | 55.36684 | 30 ft | 6 kts | 271° |
| 2026-04-21 11:12 | 25.25024 | 55.36631 | 29 ft | 8 kts | 271° |
| 2026-04-21 11:12 | 25.25026 | 55.36567 | 28 ft | 7 kts | 272° |
| 2026-04-21 11:13 | 25.25030 | 55.36504 | 28 ft | 9 kts | 278° |
| 2026-04-21 11:13 | 25.25041 | 55.36421 | 27 ft | 11 kts | 263° |
| 2026-04-21 11:13 | 25.25014 | 55.36386 | 27 ft | 1 kts | 207° |
| 2026-04-21 11:13 | 25.24997 | 55.36389 | 27 ft | 4 kts | 152° |
| 2026-04-21 11:14 | 25.24957 | 55.36410 | 27 ft | 9 kts | 161° |
| 2026-04-21 11:14 | 25.24888 | 55.36396 | 26 ft | 7 kts | 210° |
| 2026-04-21 11:14 | 25.24854 | 55.36374 | 26 ft | 4 kts | 211° |
| 2026-04-21 11:14 | 25.24842 | 55.36365 | 26 ft | 3 kts | 211° |
| 2026-04-21 11:15 | 25.24833 | 55.36360 | 31 ft | 0 kts | 211° |